Time;durP1;ratioP1;P1;durP2;ratioP2;P2;SDS_P1;SDS_P2;PMS_P1;PMS_P2;Temp;Humidity;BMP_temperature;BMP_pressure;BME280_temperature;BME280_humidity;BME280_pressure;Samples;Min_cycle;Max_cycle;Signal;HPM_P1;HPM_P2
2022/07/08 00:01:58;;;;;;;16.20;3.57;;;16.00;1.00;;;;;;4979377;28;20207;-88
2022/07/08 00:04:37;;;;;;;15.07;4.10;;;15.90;1.00;;;;;;4979424;28;20203;-88
2022/07/08 00:07:15;;;;;;;16.57;4.13;;;15.90;1.00;;;;;;4979665;28;20176;-86
2022/07/08 00:10:02;;;;;;;16.23;3.67;;;15.80;1.00;;;;;;4978524;28;20180;-88
2022/07/08 00:12:51;;;;;;;8.87;3.97;;;15.80;1.00;;;;;;4979563;28;20223;-86
2022/07/08 00:15:31;;;;;;;13.27;3.90;;;15.70;1.00;;;;;;4976169;28;20203;-89
2022/07/08 00:18:04;;;;;;;15.40;4.23;;;15.70;25.80;;;;;;4979087;28;20211;-90
2022/07/08 00:20:38;;;;;;;11.03;3.70;;;15.80;99.90;;;;;;4979813;28;20187;-88
2022/07/08 00:23:19;;;;;;;16.10;3.97;;;15.70;99.90;;;;;;4979681;28;20173;-86
2022/07/08 00:26:00;;;;;;;14.87;4.20;;;15.70;99.90;;;;;;4979627;28;20286;-88
2022/07/08 00:29:10;;;;;;;10.87;3.67;;;15.70;99.90;;;;;;4979382;28;20294;-88
2022/07/08 00:31:51;;;;;;;14.97;4.03;;;15.70;99.90;;;;;;4973007;28;20253;-88
2022/07/08 00:37:26;;;;;;;12.63;4.00;;;15.70;99.90;;;;;;4978530;28;20196;-91
2022/07/08 00:40:06;;;;;;;12.40;3.80;;;15.70;99.90;;;;;;4978981;28;20194;-87
2022/07/08 00:48:18;;;;;;;16.97;4.50;;;15.70;99.90;;;;;;4979215;28;20192;-88
2022/07/08 00:51:05;;;;;;;16.57;4.60;;;15.70;99.90;;;;;;4978996;28;20200;-88
2022/07/08 00:53:39;;;;;;;16.07;4.47;;;15.70;99.90;;;;;;4978972;28;20201;-85
2022/07/08 00:56:35;;;;;;;22.17;4.27;;;15.60;99.90;;;;;;4979136;28;20271;-88
2022/07/08 00:59:22;;;;;;;11.07;3.97;;;15.70;99.90;;;;;;4960473;28;20194;-89
2022/07/08 01:04:45;;;;;;;14.43;4.50;;;15.60;99.90;;;;;;4976995;28;20207;-86
2022/07/08 01:07:38;;;;;;;13.60;4.13;;;15.60;99.90;;;;;;4978847;28;20207;-87
2022/07/08 01:10:14;;;;;;;14.13;4.00;;;15.60;1.00;;;;;;4975258;28;20220;-88
2022/07/08 01:18:54;;;;;;;18.03;4.33;;;15.60;99.90;;;;;;4958201;28;20212;-88
2022/07/08 01:24:50;;;;;;;11.97;4.53;;;15.60;99.90;;;;;;4959450;28;20204;-88
2022/07/08 01:27:26;;;;;;;18.20;4.23;;;15.60;99.90;;;;;;4954254;28;20189;-91
2022/07/08 01:30:14;;;;;;;12.10;3.90;;;15.60;99.90;;;;;;4959507;28;20223;-87
2022/07/08 01:33:08;;;;;;;15.77;4.07;;;15.60;1.00;;;;;;4959629;28;20420;-88
2022/07/08 01:36:06;;;;;;;14.70;4.13;;;15.60;1.00;;;;;;4959161;29;20188;-87
2022/07/08 01:38:45;;;;;;;13.90;4.07;;;15.60;1.00;;;;;;4959470;28;20192;-88
2022/07/08 01:41:25;;;;;;;22.27;4.10;;;15.60;1.00;;;;;;4959238;28;20191;-90
2022/07/08 01:44:05;;;;;;;15.60;4.70;;;15.60;1.00;;;;;;4959236;28;20193;-91
2022/07/08 01:46:38;;;;;;;17.30;3.90;;;15.50;1.00;;;;;;4959099;28;20309;-88
2022/07/08 01:49:23;;;;;;;18.33;4.43;;;15.50;1.00;;;;;;4959254;28;20292;-88
2022/07/08 01:52:17;;;;;;;15.20;4.20;;;15.50;1.00;;;;;;4959091;29;20610;-87
2022/07/08 01:58:02;;;;;;;16.57;3.93;;;15.50;1.00;;;;;;4946144;28;20210;-85
2022/07/08 02:03:37;;;;;;;18.13;3.60;;;15.50;1.00;;;;;;4914762;29;20245;-88
2022/07/08 02:06:31;;;;;;;9.93;3.60;;;15.50;1.00;;;;;;4958758;28;20281;-85
2022/07/08 02:09:15;;;;;;;22.50;3.83;;;15.50;1.00;;;;;;4959189;28;20191;-88
2022/07/08 02:12:32;;;;;;;17.17;4.67;;;15.50;1.00;;;;;;4900891;29;20206;-85
2022/07/08 02:20:56;;;;;;;10.40;3.80;;;15.50;1.00;;;;;;4953727;28;20188;-88
2022/07/08 02:23:33;;;;;;;13.60;3.70;;;15.50;1.00;;;;;;4962525;29;20200;-90
2022/07/08 02:26:14;;;;;;;23.33;4.37;;;15.50;1.00;;;;;;4962538;28;20228;-89
2022/07/08 02:29:16;;;;;;;19.37;4.37;;;15.50;1.00;;;;;;4961990;28;20197;-90
2022/07/08 02:32:00;;;;;;;16.83;4.40;;;15.50;1.00;;;;;;4962374;28;20191;-88
2022/07/08 02:34:40;;;;;;;17.47;4.30;;;15.50;1.00;;;;;;4962105;28;20195;-88
2022/07/08 02:37:20;;;;;;;17.10;4.53;;;15.50;1.00;;;;;;4961964;28;20214;-88
2022/07/08 02:40:04;;;;;;;16.67;4.20;;;15.50;1.00;;;;;;4962161;29;20225;-86
2022/07/08 02:43:02;;;;;;;21.87;4.70;;;15.50;1.00;;;;;;4962439;28;20200;-87
2022/07/08 02:45:45;;;;;;;14.83;4.83;;;15.50;1.00;;;;;;4962025;29;20234;-89
2022/07/08 02:48:23;;;;;;;13.87;4.00;;;15.50;1.00;;;;;;4961833;28;20249;-87
2022/07/08 02:51:00;;;;;;;18.07;4.70;;;15.50;1.00;;;;;;4962355;28;20208;-88
2022/07/08 02:53:37;;;;;;;15.73;3.80;;;15.60;1.00;;;;;;4961934;28;20258;-87
2022/07/08 02:56:10;;;;;;;15.67;3.67;;;15.50;1.00;;;;;;4961346;28;20235;-90
2022/07/08 02:58:52;;;;;;;19.03;4.57;;;15.50;1.00;;;;;;4962015;28;20182;-87
2022/07/08 03:01:39;;;;;;;15.57;4.30;;;15.50;1.00;;;;;;4961457;28;20190;-87
2022/07/08 03:04:25;;;;;;;19.73;4.10;;;15.60;1.00;;;;;;4961694;29;20193;-86
2022/07/08 03:10:34;;;;;;;21.13;4.07;;;15.60;1.00;;;;;;4961322;28;20211;-87
2022/07/08 03:13:07;;;;;;;14.30;3.83;;;15.60;1.00;;;;;;4961652;28;20187;-87
2022/07/08 03:16:06;;;;;;;17.70;4.10;;;15.60;1.00;;;;;;4961490;29;20196;-88
2022/07/08 03:18:48;;;;;;;19.50;4.03;;;15.60;1.00;;;;;;4947290;28;20222;-87
2022/07/08 03:24:04;;;;;;;17.05;3.75;;;15.70;1.00;;;;;;4949583;29;20271;-88
2022/07/08 03:26:31;;;;;;;17.47;4.10;;;15.60;1.00;;;;;;4935450;29;20212;-84
2022/07/08 03:29:01;;;;;;;16.50;3.67;;;15.70;1.00;;;;;;4955380;28;20199;-87
2022/07/08 03:31:32;;;;;;;13.93;3.87;;;15.70;1.00;;;;;;4960089;28;20223;-84
2022/07/08 03:34:08;;;;;;;12.13;3.90;;;15.70;1.00;;;;;;4948416;28;20184;-89
2022/07/08 03:36:35;;;;;;;29.45;14.88;;;15.80;1.00;;;;;;4940532;29;20284;-85
2022/07/08 03:39:12;;;;;;;;;;;;;;;;;;;;;
2022/07/08 03:41:59;;;;;;;20.65;4.45;;;15.80;1.00;;;;;;4947697;29;20208;-87
2022/07/08 03:44:31;;;;;;;19.30;4.43;;;15.90;1.00;;;;;;4959412;28;20173;-87
2022/07/08 03:47:01;;;;;;;21.23;4.67;;;15.80;1.00;;;;;;4960858;28;20200;-87
2022/07/08 03:49:36;;;;;;;16.90;4.00;;;15.90;1.00;;;;;;4961076;28;20208;-88
2022/07/08 03:52:09;;;;;;;17.83;3.77;;;15.90;1.00;;;;;;4960212;28;20191;-86
2022/07/08 03:54:51;;;;;;;14.77;4.10;;;15.90;1.00;;;;;;4951295;28;20191;-85
2022/07/08 03:57:22;;;;;;;15.60;3.50;;;15.90;1.00;;;;;;4960979;28;20176;-89
2022/07/08 03:59:49;;;;;;;28.07;4.33;;;15.90;1.00;;;;;;4939790;29;20269;-86
2022/07/08 04:02:28;;;;;;;14.75;3.63;;;16.00;1.00;;;;;;4959109;28;20215;-88
2022/07/08 04:05:15;;;;;;;15.70;3.70;;;16.00;1.00;;;;;;4960679;28;20211;-88
2022/07/08 04:07:43;;;;;;;12.43;4.03;;;16.10;1.00;;;;;;4947298;29;20547;-85
2022/07/08 04:10:10;;;;;;;12.38;3.80;;;16.00;1.00;;;;;;4955913;29;20288;-86
2022/07/08 04:12:37;;;;;;;16.05;3.40;;;16.10;1.00;;;;;;4948136;29;20202;-86
2022/07/08 04:15:10;;;;;;;16.20;4.05;;;16.10;1.00;;;;;;4946936;28;20184;-86
2022/07/08 04:17:44;;;;;;;16.05;4.05;;;16.10;1.00;;;;;;4960558;28;20217;-86
2022/07/08 04:20:13;;;;;;;11.45;3.42;;;16.10;1.00;;;;;;4944439;28;20214;-86
2022/07/08 04:22:47;;;;;;;16.00;4.28;;;16.10;1.00;;;;;;4939635;29;20183;-89
2022/07/08 04:25:15;;;;;;;14.80;4.75;;;16.20;1.00;;;;;;4951214;28;20198;-89
2022/07/08 04:27:42;;;;;;;19.58;7.00;;;16.30;1.00;;;;;;4935611;29;20225;-86
2022/07/08 04:30:09;;;;;;;22.13;9.50;;;16.20;1.00;;;;;;4941477;28;20209;-85
2022/07/08 04:32:42;;;;;;;37.83;13.90;;;16.30;1.00;;;;;;4954599;28;20160;-89
2022/07/08 04:35:22;;;;;;;48.35;18.20;;;16.30;1.00;;;;;;4951110;28;20204;-89
2022/07/08 04:38:08;;;;;;;57.63;25.73;;;16.40;1.00;;;;;;4960206;28;20218;-91
2022/07/08 04:40:48;;;;;;;32.28;11.32;;;16.40;1.00;;;;;;4955063;28;20196;-86
2022/07/08 04:46:15;;;;;;;50.03;19.67;;;16.50;99.90;;;;;;4956385;28;20228;-90
2022/07/08 04:49:09;;;;;;;34.03;14.13;;;16.60;99.90;;;;;;4960280;28;20199;-89
2022/07/08 04:51:53;;;;;;;31.38;12.70;;;16.60;99.90;;;;;;4951921;28;20212;-90
2022/07/08 04:54:33;;;;;;;43.05;15.35;;;16.70;99.90;;;;;;4958439;29;20184;-89
2022/07/08 04:57:09;;;;;;;49.17;19.48;;;16.80;99.90;;;;;;4958323;29;20211;-89
2022/07/08 04:59:53;;;;;;;53.40;22.63;;;16.80;99.90;;;;;;4958675;28;20198;-91
2022/07/08 05:02:23;;;;;;;39.45;16.63;;;16.90;99.90;;;;;;4939366;29;20197;-89
2022/07/08 05:04:50;;;;;;;30.35;14.52;;;16.90;50.20;;;;;;4933782;29;20218;-89
2022/07/08 05:07:18;;;;;;;32.47;15.25;;;16.90;1.00;;;;;;4933738;29;20228;-87
2022/07/08 05:09:45;;;;;;;23.65;9.50;;;16.80;1.00;;;;;;4933461;29;20201;-87
2022/07/08 05:12:12;;;;;;;29.77;13.80;;;16.80;1.00;;;;;;4932821;29;20579;-87
2022/07/08 05:14:39;;;;;;;47.80;20.52;;;16.80;99.90;;;;;;4956319;28;20200;-89
2022/07/08 05:17:14;;;;;;;41.17;18.58;;;16.70;99.90;;;;;;4957508;28;20227;-94
2022/07/08 05:19:41;;;;;;;38.58;17.38;;;16.70;99.90;;;;;;4935946;29;20202;-87
2022/07/08 05:22:09;;;;;;;38.92;18.73;;;16.70;99.90;;;;;;4933457;29;20203;-87
2022/07/08 05:24:37;;;;;;;31.55;15.82;;;16.70;99.90;;;;;;4942971;28;20200;-88
2022/07/08 05:27:06;;;;;;;30.77;13.55;;;16.70;99.90;;;;;;4934230;29;20227;-87
2022/07/08 05:32:18;;;;;;;53.17;14.50;;;16.60;99.90;;;;;;4940931;28;20235;-88
2022/07/08 05:34:45;;;;;;;42.17;12.10;;;16.70;99.90;;;;;;4934680;29;20670;-87
2022/07/08 05:37:16;;;;;;;82.13;18.60;;;16.60;99.90;;;;;;4949485;28;20206;-91
2022/07/08 05:39:44;;;;;;;55.75;15.80;;;16.70;99.90;;;;;;4934695;29;20643;-87
2022/07/08 05:42:12;;;;;;;56.78;16.73;;;16.80;1.00;;;;;;4934756;29;20247;-88
2022/07/08 05:44:40;;;;;;;22.23;6.65;;;16.80;1.00;;;;;;4934834;29;20205;-88
2022/07/08 05:47:08;;;;;;;32.72;9.85;;;16.90;1.00;;;;;;4934990;29;20220;-87
2022/07/08 05:49:36;;;;;;;13.23;5.05;;;17.00;99.90;;;;;;4935273;29;20192;-87
2022/07/08 05:52:03;;;;;;;15.68;6.10;;;17.10;99.90;;;;;;4938654;29;20196;-87
2022/07/08 05:54:31;;;;;;;11.55;4.38;;;17.10;99.90;;;;;;4938094;29;20206;-88
2022/07/08 05:57:00;;;;;;;13.70;3.83;;;17.20;99.90;;;;;;4938244;29;20663;-88
2022/07/08 05:59:27;;;;;;;8.73;3.45;;;17.30;99.90;;;;;;4938342;29;20245;-88
2022/07/08 06:01:54;;;;;;;8.35;3.63;;;17.40;99.90;;;;;;4938291;29;20327;-88
2022/07/08 06:04:21;;;;;;;9.80;2.85;;;17.50;1.00;;;;;;4938402;29;20201;-88
2022/07/08 06:06:58;;;;;;;12.02;3.38;;;17.50;1.00;;;;;;4946986;28;20208;-90
2022/07/08 06:09:26;;;;;;;10.88;3.60;;;17.60;1.00;;;;;;4938836;29;20285;-88
2022/07/08 06:14:55;;;;;;;6.85;3.55;;;17.60;99.90;;;;;;4935858;29;20201;-88
2022/07/08 06:17:22;;;;;;;6.88;2.88;;;17.70;99.90;;;;;;4938223;29;20234;-88
2022/07/08 06:20:00;;;;;;;8.30;3.47;;;17.70;1.00;;;;;;4961384;28;20263;-91
2022/07/08 06:22:27;;;;;;;13.90;3.55;;;17.70;1.00;;;;;;4938169;29;20188;-88
2022/07/08 06:24:55;;;;;;;8.13;3.50;;;17.80;1.00;;;;;;4937706;29;20288;-87
2022/07/08 06:27:34;;;;;;;12.30;3.90;;;17.90;1.00;;;;;;4938045;29;20281;-89
2022/07/08 06:30:02;;;;;;;11.68;2.80;;;18.00;1.00;;;;;;4951764;29;20200;-89
2022/07/08 06:32:29;;;;;;;;;;;18.00;1.00;;;;;;4938213;29;20201;-88
2022/07/08 06:34:56;;;;;;;;;;;18.10;1.00;;;;;;4937893;29;19928;-89
2022/07/08 06:37:23;;;;;;;;;;;18.00;1.00;;;;;;4938295;29;19923;-88
2022/07/08 06:39:50;;;;;;;;;;;18.00;1.00;;;;;;4937916;29;19931;-88
2022/07/08 06:42:19;;;;;;;;;;;18.10;99.90;;;;;;4937906;29;20289;-89
2022/07/08 06:44:46;;;;;;;;;;;18.20;1.00;;;;;;4937867;29;19923;-88
2022/07/08 06:47:14;;;;;;;8.82;2.40;;;18.30;99.90;;;;;;4937661;29;20058;-88
2022/07/08 06:49:41;;;;;;;;;;;18.40;99.90;;;;;;4937548;29;20208;-89
2022/07/08 06:52:08;;;;;;;;;;;18.60;99.90;;;;;;4937753;29;20599;-89
2022/07/08 06:54:38;;;;;;;11.05;2.10;;;18.90;1.00;;;;;;4937739;29;19931;-88
2022/07/08 06:57:13;;;;;;;6.90;2.20;;;19.10;1.00;;;;;;4943037;28;20189;-93
2022/07/08 06:59:40;;;;;;;;;;;19.20;99.90;;;;;;4954011;28;20243;-89
2022/07/08 07:02:07;;;;;;;8.32;2.95;;;19.10;1.00;;;;;;4937252;29;20067;-89
2022/07/08 07:04:37;;;;;;;6.28;2.08;;;19.20;99.90;;;;;;4937274;29;20061;-89
2022/07/08 07:07:04;;;;;;;;;;;19.50;1.00;;;;;;4937400;29;20642;-89
2022/07/08 07:09:30;;;;;;;;;;;19.90;1.00;;;;;;4937432;29;20259;-89
2022/07/08 07:11:57;;;;;;;;;;;20.20;1.00;;;;;;4937566;29;19930;-87
2022/07/08 07:14:24;;;;;;;;;;;20.50;99.90;;;;;;4937774;29;19926;-88
2022/07/08 07:16:51;;;;;;;;;;;20.70;1.00;;;;;;4937313;29;19930;-87
2022/07/08 07:19:18;;;;;;;;;;;20.80;1.00;;;;;;4937189;29;20379;-87
2022/07/08 07:21:46;;;;;;;5.95;1.75;;;20.70;1.00;;;;;;4937072;29;20194;-87
2022/07/08 07:24:13;;;;;;;3.30;1.40;;;20.60;99.90;;;;;;4937163;29;20216;-87
2022/07/08 07:29:22;;;;;;;;;;;20.90;99.90;;;;;;4955178;28;20184;-87
2022/07/08 07:34:34;;;;;;;;;;;20.60;1.00;;;;;;4939674;28;19927;-88
2022/07/08 07:37:22;;;;;;;;;;;20.60;1.00;;;;;;4937248;29;20386;-89
2022/07/08 07:45:56;;;;;;;;;;;22.20;99.90;;;;;;4916144;29;20365;-89
2022/07/08 07:48:23;;;;;;;;;;;22.80;1.00;;;;;;4936629;29;19926;-89
2022/07/08 07:51:15;;;;;;;;;;;23.00;16.50;;;;;;4939282;28;19922;-91
2022/07/08 07:56:49;;;;;;;6.32;1.00;;;24.20;1.00;;;;;;4930444;29;20500;-89
2022/07/08 07:59:16;;;;;;;5.85;1.38;;;24.80;99.90;;;;;;4937744;29;20205;-88
2022/07/08 08:15:26;;;;;;;;;;;;;;;;;;;;;
2022/07/08 08:31:49;;;;;;;5.40;1.10;;;29.20;1.00;;;;;;6221800;22;20033;-93
2022/07/08 08:47:39;;;;;;;1.47;1.10;;;27.00;99.90;;;;;;6161632;22;1338341;-88
2022/07/08 08:53:03;;;;;;;3.40;1.20;;;26.10;99.90;;;;;;6190915;23;20200;-91
2022/07/08 08:55:36;;;;;;;4.25;1.02;;;25.90;99.90;;;;;;6190218;23;20141;-92
2022/07/08 08:58:21;;;;;;;2.92;1.10;;;25.70;99.90;;;;;;6190171;23;20181;-91
2022/07/08 09:00:55;;;;;;;2.83;1.48;;;25.60;99.90;;;;;;6189963;23;20158;-91
2022/07/08 09:03:28;;;;;;;3.85;1.20;;;25.70;99.90;;;;;;6190053;23;20210;-90
2022/07/08 09:05:59;;;;;;;4.22;1.05;;;25.90;1.00;;;;;;6190492;23;20189;-95
2022/07/08 09:08:32;;;;;;;4.38;0.80;;;26.50;1.00;;;;;;6159735;23;20158;-91
2022/07/08 09:11:09;;;;;;;7.60;1.10;;;26.90;99.90;;;;;;6159913;23;20179;-91
2022/07/08 09:13:46;;;;;;;6.15;1.17;;;27.00;99.90;;;;;;6160261;23;20186;-91
2022/07/08 09:16:19;;;;;;;2.22;0.85;;;27.20;99.90;;;;;;6160126;23;20174;-94
2022/07/08 09:19:15;;;;;;;7.82;1.20;;;27.60;99.90;;;;;;6159875;23;20154;-92
2022/07/08 09:21:53;;;;;;;3.53;1.10;;;28.10;99.90;;;;;;6160414;23;20150;-91
2022/07/08 09:24:25;;;;;;;4.50;1.58;;;28.30;99.90;;;;;;6159487;23;20166;-94
2022/07/08 09:27:00;;;;;;;6.40;1.10;;;28.40;99.90;;;;;;6160052;23;20194;-94
2022/07/08 09:29:31;;;;;;;9.77;1.55;;;28.40;99.90;;;;;;6159676;23;20171;-92
2022/07/08 09:32:13;;;;;;;3.33;1.17;;;28.30;99.90;;;;;;6159988;23;20165;-92
2022/07/08 09:34:44;;;;;;;6.90;1.00;;;28.10;99.90;;;;;;6160120;23;20209;-91
2022/07/08 09:37:15;;;;;;;4.03;1.00;;;27.70;99.90;;;;;;6159981;23;20078;-92
2022/07/08 09:39:46;;;;;;;3.30;1.05;;;27.30;99.90;;;;;;6159512;23;20200;-92
2022/07/08 09:42:17;;;;;;;4.32;1.20;;;27.10;99.90;;;;;;6159378;23;20216;-92
2022/07/08 09:45:37;;;;;;;6.63;1.40;;;26.80;99.90;;;;;;6157226;23;20152;-93
2022/07/08 09:48:06;;;;;;;;;;;26.60;99.90;;;;;;6103705;23;20083;-91
2022/07/08 09:50:36;;;;;;;;;;;26.40;99.90;;;;;;6152732;23;19917;-93
2022/07/08 09:53:17;;;;;;;3.90;1.38;;;26.20;99.90;;;;;;6152614;23;20180;-92
2022/07/08 09:55:53;;;;;;;;;;;26.10;99.90;;;;;;6153453;23;20022;-92
2022/07/08 09:58:35;;;;;;;;;;;25.70;99.90;;;;;;6153568;23;20179;-91
2022/07/08 10:01:20;;;;;;;3.97;1.25;;;25.20;99.90;;;;;;6153103;23;20169;-91
2022/07/08 10:03:49;;;;;;;6.28;2.80;;;25.20;99.90;;;;;;6152750;23;20163;-91
2022/07/08 10:06:26;;;;;;;17.98;16.65;;;25.70;99.90;;;;;;6152276;23;20167;-91
2022/07/08 10:09:04;;;;;;;70.78;64.80;;;26.30;99.90;;;;;;6152664;23;20126;-92
2022/07/08 10:11:39;;;;;;;211.10;197.07;;;26.90;99.90;;;;;;6152674;23;20167;-92
2022/07/08 10:14:12;;;;;;;438.98;404.67;;;26.90;99.90;;;;;;6152385;23;20193;-92
2022/07/08 10:16:44;;;;;;;682.15;627.58;;;27.00;99.90;;;;;;6152189;23;20191;-92
2022/07/08 10:19:19;;;;;;;720.50;616.03;;;27.40;99.90;;;;;;6152271;23;20219;-92
2022/07/08 10:22:02;;;;;;;730.17;595.85;;;27.50;99.90;;;;;;6152340;23;20170;-91
2022/07/08 10:24:36;;;;;;;704.42;561.10;;;27.30;99.90;;;;;;6152201;23;20189;-91
2022/07/08 10:27:14;;;;;;;667.70;519.97;;;26.70;99.90;;;;;;6152183;23;20171;-94
2022/07/08 10:29:43;;;;;;;;;;;26.20;99.90;;;;;;6151747;23;20194;-90
2022/07/08 10:32:27;;;;;;;679.63;545.40;;;26.10;99.90;;;;;;6153233;23;20415;-89
2022/07/08 10:35:10;;;;;;;605.17;443.33;;;26.00;99.90;;;;;;6151954;23;20196;-94
2022/07/08 10:37:59;;;;;;;702.87;573.93;;;25.90;99.90;;;;;;6152367;23;20167;-91
2022/07/08 10:51:43;;;;;;;710.33;575.50;;;25.40;99.90;;;;;;6140156;23;20177;-92
2022/07/08 10:55:12;;;;;;;699.10;558.43;;;25.30;99.90;;;;;;6136221;23;20190;-91
2022/07/08 11:00:55;;;;;;;700.67;551.27;;;24.70;99.90;;;;;;6122779;23;20131;-91
2022/07/08 11:03:48;;;;;;;;;;;24.60;99.90;;;;;;6142851;23;20060;-88
2022/07/08 11:06:42;;;;;;;696.47;534.60;;;24.30;99.90;;;;;;6090195;23;20145;-89
2022/07/08 11:09:11;;;;;;;686.53;510.57;;;24.10;99.90;;;;;;6125659;23;20160;-87
2022/07/08 11:48:58;;;;;;;703.10;550.40;;;25.30;99.90;;;;;;5800370;24;20298;-91
2022/07/08 12:03:35;;;;;;;731.57;595.90;;;25.30;99.90;;;;;;5892526;24;20253;-93
2022/07/08 12:06:45;;;;;;;729.50;584.87;;;25.40;99.90;;;;;;5950095;24;20156;-93
2022/07/08 12:09:55;;;;;;;736.07;611.23;;;25.40;99.90;;;;;;5895581;24;20166;-89
2022/07/08 12:13:16;;;;;;;;;;;;;;;;;;;;;
2022/07/08 12:19:26;;;;;;;739.20;611.73;;;25.00;99.90;;;;;;5853959;24;20173;-86
2022/07/08 12:26:21;;;;;;;;;;;;;;;;;;;;;
2022/07/08 12:50:36;;;;;;;;;;;;;;;;;;;;;
2022/07/08 12:54:05;;;;;;;;;;;;;;;;;;;;;
2022/07/08 13:21:32;;;;;;;744.95;573.97;;;23.50;99.90;;;;;;5938789;24;20172;-87
2022/07/08 13:26:59;;;;;;;747.25;586.40;;;23.50;99.90;;;;;;6073190;23;20488;-85
2022/07/08 13:29:37;;;;;;;741.73;577.63;;;23.70;99.90;;;;;;6078143;23;20171;-88
2022/07/08 13:32:05;;;;;;;738.70;577.83;;;23.90;99.90;;;;;;6069141;23;20172;-84
2022/07/08 13:34:32;;;;;;;744.38;591.17;;;24.00;99.90;;;;;;6068812;23;20192;-84
2022/07/08 13:36:59;;;;;;;743.47;597.47;;;24.10;99.90;;;;;;6068313;23;20623;-84
2022/07/08 13:39:26;;;;;;;751.15;594.67;;;24.00;99.90;;;;;;6068609;23;20236;-85
2022/07/08 13:41:53;;;;;;;752.70;613.67;;;23.80;99.90;;;;;;6081974;23;20168;-88
2022/07/08 13:44:20;;;;;;;747.03;598.50;;;23.80;99.90;;;;;;6067949;23;20509;-83
2022/07/08 13:46:48;;;;;;;742.63;585.57;;;23.70;99.90;;;;;;6068460;23;20183;-84
2022/07/08 13:49:15;;;;;;;745.00;591.40;;;23.70;99.90;;;;;;6081142;23;20207;-84
2022/07/08 13:51:42;;;;;;;744.90;582.30;;;23.80;99.90;;;;;;6096909;23;20172;-84
2022/07/08 13:54:09;;;;;;;734.53;570.70;;;23.80;99.90;;;;;;6096963;23;20196;-87
2022/07/08 13:56:36;;;;;;;729.20;566.07;;;23.80;99.90;;;;;;6096145;23;20679;-88
2022/07/08 13:59:04;;;;;;;726.17;554.43;;;23.70;99.90;;;;;;6096065;23;20623;-87
2022/07/08 14:01:45;;;;;;;726.43;562.13;;;23.80;99.90;;;;;;6098001;23;20199;-89
2022/07/08 14:04:14;;;;;;;726.17;557.60;;;23.90;99.90;;;;;;6100477;23;20167;-87
2022/07/08 14:06:41;;;;;;;723.93;558.10;;;23.90;99.90;;;;;;6109897;23;20203;-88
2022/07/08 14:09:08;;;;;;;726.07;567.20;;;23.90;99.90;;;;;;6097278;23;20243;-88
2022/07/08 14:11:35;;;;;;;723.93;557.43;;;23.80;99.90;;;;;;6095918;23;20172;-88
2022/07/08 14:14:02;;;;;;;728.07;568.87;;;23.80;99.90;;;;;;6095674;23;20219;-88
2022/07/08 14:16:29;;;;;;;728.80;567.17;;;23.70;99.90;;;;;;6100296;23;20175;-90
2022/07/08 14:19:16;;;;;;;733.83;568.97;;;23.70;99.90;;;;;;6110586;23;20171;-90
2022/07/08 14:25:35;;;;;;;742.33;581.95;;;23.90;99.90;;;;;;6121627;23;20223;-91
2022/07/08 14:28:49;;;;;;;;;;;;;;;;;;;;;
2022/07/08 14:31:41;;;;;;;748.90;596.67;;;24.10;99.90;;;;;;6118460;23;20171;-90
2022/07/08 14:34:08;;;;;;;746.67;595.92;;;23.90;99.90;;;;;;6097125;23;20199;-88
2022/07/08 14:36:46;;;;;;;737.47;581.17;;;23.80;99.90;;;;;;6107014;23;20172;-90
2022/07/08 14:42:40;;;;;;;731.50;559.50;;;23.40;99.90;;;;;;6082621;23;20163;-86
2022/07/08 14:45:07;;;;;;;735.57;566.90;;;23.30;99.90;;;;;;6096717;23;20179;-87
2022/07/08 14:54:00;;;;;;;728.70;551.67;;;23.20;99.90;;;;;;6081709;23;20247;-90
2022/07/08 14:56:30;;;;;;;729.23;546.67;;;23.20;99.90;;;;;;6058561;23;20176;-86
2022/07/08 14:58:57;;;;;;;732.93;559.37;;;23.10;99.90;;;;;;6067844;23;20156;-86
2022/07/08 15:01:25;;;;;;;731.67;561.43;;;23.00;99.90;;;;;;6068086;23;20244;-86
2022/07/08 15:03:52;;;;;;;731.30;552.60;;;22.90;99.90;;;;;;6067590;23;20173;-86
2022/07/08 15:06:18;;;;;;;;;;;22.80;99.90;;;;;;6068477;23;20176;-86
2022/07/08 15:08:45;;;;;;;733.73;552.20;;;22.70;99.90;;;;;;6067559;23;20059;-86
2022/07/08 15:11:12;;;;;;;732.73;555.77;;;22.70;99.90;;;;;;6067726;23;20172;-86
2022/07/08 15:13:41;;;;;;;722.93;536.53;;;22.50;99.90;;;;;;6075259;23;20169;-89
2022/07/08 15:16:13;;;;;;;722.03;532.87;;;22.40;99.90;;;;;;6087864;23;20216;-91
2022/07/08 15:18:43;;;;;;;724.17;537.30;;;22.20;99.90;;;;;;6085496;23;20160;-89
2022/07/08 15:21:14;;;;;;;720.87;534.10;;;22.20;99.90;;;;;;6085788;23;20166;-91
2022/07/08 15:40:49;;;;;;;731.00;542.60;;;22.50;99.90;;;;;;6207215;23;20176;-92
2022/07/08 15:44:05;;;;;;;753.87;543.70;;;22.40;99.90;;;;;;6211858;23;20193;-92
2022/07/08 15:47:11;;;;;;;727.93;531.10;;;22.40;99.90;;;;;;6177662;23;20154;-90
2022/07/08 15:50:06;;;;;;;732.70;533.67;;;22.20;99.90;;;;;;6211015;23;20174;-92
2022/07/08 15:53:26;;;;;;;;;;;;;;;;;;;;;
2022/07/08 15:56:18;;;;;;;722.43;511.50;;;22.10;99.90;;;;;;6211316;23;20189;-90
2022/07/08 15:59:21;;;;;;;724.90;519.37;;;21.90;1.00;;;;;;6194638;23;20229;-93
2022/07/08 16:02:09;;;;;;;722.13;517.30;;;21.90;1.00;;;;;;6210902;23;20184;-90
2022/07/08 16:04:36;;;;;;;724.53;523.33;;;21.90;1.00;;;;;;6203417;23;20165;-89
2022/07/08 16:07:05;;;;;;;717.20;509.93;;;21.80;1.00;;;;;;6185394;23;20173;-88
2022/07/08 16:09:33;;;;;;;717.77;514.10;;;21.70;1.00;;;;;;6184813;23;20161;-87
2022/07/08 16:12:08;;;;;;;;;;;21.60;1.00;;;;;;6203736;23;20165;-93
2022/07/08 16:18:05;;;;;;;;;;;21.20;1.00;;;;;;6121772;23;19936;-90
2022/07/08 16:24:27;;;;;;;710.43;469.20;;;20.80;1.00;;;;;;6172012;23;20153;-92
2022/07/08 16:27:15;;;;;;;716.53;486.83;;;20.50;1.00;;;;;;6142512;23;20161;-91
2022/07/08 16:29:45;;;;;;;703.03;452.57;;;20.40;1.00;;;;;;6193223;23;20155;-92
2022/07/08 16:39:08;;;;;;;712.07;462.43;;;20.10;1.00;;;;;;6196783;23;20166;-92
2022/07/08 16:52:22;;;;;;;742.23;500.10;;;20.00;1.00;;;;;;6087783;23;20216;-87
2022/07/08 16:57:58;;;;;;;714.20;460.07;;;19.80;1.00;;;;;;6092746;23;20233;-90
2022/07/08 17:00:39;;;;;;;;;;;19.70;95.30;;;;;;6093566;23;20144;-90
2022/07/08 17:03:42;;;;;;;716.93;461.87;;;19.60;1.00;;;;;;6086858;23;20077;-91
2022/07/08 17:06:54;;;;;;;709.53;453.23;;;19.60;99.90;;;;;;6093595;23;20180;-90
2022/07/08 17:09:37;;;;;;;705.40;436.67;;;19.60;99.90;;;;;;5972710;24;20178;-90
2022/07/08 17:15:49;;;;;;;698.53;428.10;;;19.40;99.90;;;;;;6034869;23;20181;-91
2022/07/08 17:21:16;;;;;;;701.23;415.87;;;19.40;99.90;;;;;;6159344;23;20492;-86
2022/07/08 17:26:59;;;;;;;683.57;409.97;;;19.30;99.90;;;;;;6204253;23;20182;-85
2022/07/08 17:32:42;;;;;;;688.13;402.23;;;19.30;99.90;;;;;;6203799;23;20647;-88
2022/07/08 17:45:30;;;;;;;679.57;388.97;;;18.80;1.00;;;;;;6155966;23;20153;-88
2022/07/08 17:48:01;;;;;;;682.67;392.13;;;18.80;1.00;;;;;;6210011;23;20146;-91
2022/07/08 17:50:28;;;;;;;680.53;382.60;;;18.70;1.00;;;;;;6188854;23;20146;-86
2022/07/08 17:59:48;;;;;;;669.10;361.33;;;18.70;1.00;;;;;;5925254;24;20180;-90
2022/07/08 18:02:30;;;;;;;671.87;366.40;;;18.70;1.00;;;;;;5948667;23;20238;-91
2022/07/08 18:05:16;;;;;;;670.33;368.83;;;18.60;15.60;;;;;;6184022;23;20181;-89
2022/07/08 18:15:03;;;;;;;668.00;363.13;;;18.50;1.00;;;;;;6115810;23;20221;-89
2022/07/08 18:17:39;;;;;;;668.80;360.77;;;18.40;1.00;;;;;;6120521;23;20224;-86
2022/07/08 18:20:26;;;;;;;666.33;360.90;;;18.30;26.60;;;;;;6123267;23;20155;-88
2022/07/08 18:22:53;;;;;;;663.47;348.87;;;18.30;37.40;;;;;;6207423;23;20176;-84
2022/07/08 18:25:20;;;;;;;664.70;360.97;;;18.20;1.00;;;;;;6202394;23;20586;-89
2022/07/08 18:27:47;;;;;;;666.87;353.77;;;18.00;8.70;;;;;;6188456;23;20169;-88
2022/07/08 18:30:14;;;;;;;664.63;354.17;;;17.90;61.70;;;;;;6188568;23;20177;-85
2022/07/08 18:32:42;;;;;;;666.70;347.33;;;17.80;99.90;;;;;;6184474;23;20252;-84
2022/07/08 18:35:11;;;;;;;663.10;352.33;;;17.70;99.90;;;;;;6184417;23;20118;-85
2022/07/08 18:37:38;;;;;;;657.77;337.53;;;17.60;99.90;;;;;;6184126;23;20180;-85
2022/07/08 18:40:07;;;;;;;658.20;338.17;;;17.50;99.90;;;;;;6184701;23;20177;-85
2022/07/08 18:42:34;;;;;;;653.90;330.87;;;17.40;99.90;;;;;;6184578;23;20165;-85
2022/07/08 18:45:01;;;;;;;663.10;334.93;;;17.30;99.90;;;;;;6186495;23;20232;-87
2022/07/08 18:47:28;;;;;;;665.70;339.40;;;17.20;99.90;;;;;;6184187;23;20224;-85
2022/07/08 18:49:55;;;;;;;666.47;337.13;;;17.10;99.90;;;;;;6184883;23;20235;-86
2022/07/08 18:52:25;;;;;;;660.67;331.33;;;17.10;1.00;;;;;;6184795;23;20625;-86
2022/07/08 18:54:52;;;;;;;649.00;316.10;;;16.90;1.00;;;;;;6184530;23;20172;-86
2022/07/08 18:57:19;;;;;;;654.87;325.20;;;16.80;1.00;;;;;;6184165;23;20496;-86
2022/07/08 18:59:46;;;;;;;648.33;307.27;;;16.80;1.00;;;;;;6184659;23;20664;-86